sensor_id;sensor_type;location;lat;lon;timestamp;P1;durP1;ratioP1;P2;durP2;ratioP2
56413;SDS011;42318;48.452;19.526;2023-04-08T00:03:07;7.10;;;4.47;;
56413;SDS011;42318;48.452;19.526;2023-04-08T00:10:38;6.03;;;4.15;;
56413;SDS011;42318;48.452;19.526;2023-04-08T00:18:09;5.85;;;4.10;;
56413;SDS011;42318;48.452;19.526;2023-04-08T00:25:39;8.35;;;4.82;;
56413;SDS011;42318;48.452;19.526;2023-04-08T00:33:10;4.85;;;4.03;;
56413;SDS011;42318;48.452;19.526;2023-04-08T00:40:41;6.32;;;4.72;;
56413;SDS011;42318;48.452;19.526;2023-04-08T00:48:12;6.20;;;4.28;;
56413;SDS011;42318;48.452;19.526;2023-04-08T00:55:43;5.93;;;4.05;;
56413;SDS011;42318;48.452;19.526;2023-04-08T01:03:19;6.47;;;4.00;;
56413;SDS011;42318;48.452;19.526;2023-04-08T01:11:16;5.50;;;3.75;;
56413;SDS011;42318;48.452;19.526;2023-04-08T01:18:48;6.60;;;3.95;;
56413;SDS011;42318;48.452;19.526;2023-04-08T01:26:20;5.05;;;3.58;;
56413;SDS011;42318;48.452;19.526;2023-04-08T01:33:54;5.35;;;3.75;;
56413;SDS011;42318;48.452;19.526;2023-04-08T01:41:27;4.35;;;3.42;;
56413;SDS011;42318;48.452;19.526;2023-04-08T01:48:59;4.65;;;3.20;;
56413;SDS011;42318;48.452;19.526;2023-04-08T01:56:32;5.77;;;3.87;;
56413;SDS011;42318;48.452;19.526;2023-04-08T02:04:07;5.20;;;3.53;;
56413;SDS011;42318;48.452;19.526;2023-04-08T02:11:38;3.92;;;3.35;;
56413;SDS011;42318;48.452;19.526;2023-04-08T02:19:10;3.70;;;3.35;;
56413;SDS011;42318;48.452;19.526;2023-04-08T02:26:46;5.38;;;3.63;;
56413;SDS011;42318;48.452;19.526;2023-04-08T02:34:21;4.13;;;2.95;;
56413;SDS011;42318;48.452;19.526;2023-04-08T02:41:53;4.30;;;3.53;;
56413;SDS011;42318;48.452;19.526;2023-04-08T02:49:24;5.43;;;3.42;;
56413;SDS011;42318;48.452;19.526;2023-04-08T02:56:55;5.20;;;3.05;;
56413;SDS011;42318;48.452;19.526;2023-04-08T03:04:26;4.72;;;3.42;;
56413;SDS011;42318;48.452;19.526;2023-04-08T03:11:56;4.55;;;3.15;;
56413;SDS011;42318;48.452;19.526;2023-04-08T03:19:27;4.85;;;3.28;;
56413;SDS011;42318;48.452;19.526;2023-04-08T03:26:58;3.65;;;3.08;;
56413;SDS011;42318;48.452;19.526;2023-04-08T03:34:29;3.42;;;2.83;;
56413;SDS011;42318;48.452;19.526;2023-04-08T03:42:00;3.70;;;3.05;;
56413;SDS011;42318;48.452;19.526;2023-04-08T03:49:32;4.85;;;3.08;;
56413;SDS011;42318;48.452;19.526;2023-04-08T03:57:03;3.58;;;2.83;;
56413;SDS011;42318;48.452;19.526;2023-04-08T04:04:34;6.68;;;2.88;;
56413;SDS011;42318;48.452;19.526;2023-04-08T04:12:06;4.35;;;3.20;;
56413;SDS011;42318;48.452;19.526;2023-04-08T04:19:36;3.05;;;2.70;;
56413;SDS011;42318;48.452;19.526;2023-04-08T04:27:07;3.88;;;2.72;;
56413;SDS011;42318;48.452;19.526;2023-04-08T04:34:38;3.83;;;2.92;;
56413;SDS011;42318;48.452;19.526;2023-04-08T04:42:09;4.47;;;3.25;;
56413;SDS011;42318;48.452;19.526;2023-04-08T04:49:40;3.95;;;3.10;;
56413;SDS011;42318;48.452;19.526;2023-04-08T04:57:11;3.45;;;2.60;;
56413;SDS011;42318;48.452;19.526;2023-04-08T05:04:42;4.32;;;3.30;;
56413;SDS011;42318;48.452;19.526;2023-04-08T05:12:13;4.13;;;2.80;;
56413;SDS011;42318;48.452;19.526;2023-04-08T05:19:43;3.70;;;2.75;;
56413;SDS011;42318;48.452;19.526;2023-04-08T05:27:14;3.80;;;2.72;;
56413;SDS011;42318;48.452;19.526;2023-04-08T05:34:45;4.20;;;3.10;;
56413;SDS011;42318;48.452;19.526;2023-04-08T05:42:16;3.55;;;2.78;;
56413;SDS011;42318;48.452;19.526;2023-04-08T05:49:47;4.25;;;2.83;;
56413;SDS011;42318;48.452;19.526;2023-04-08T05:57:18;5.78;;;2.92;;
56413;SDS011;42318;48.452;19.526;2023-04-08T06:04:49;4.22;;;2.78;;
56413;SDS011;42318;48.452;19.526;2023-04-08T06:12:20;4.50;;;2.97;;
56413;SDS011;42318;48.452;19.526;2023-04-08T06:19:51;4.72;;;2.88;;
56413;SDS011;42318;48.452;19.526;2023-04-08T06:27:22;4.32;;;3.13;;
56413;SDS011;42318;48.452;19.526;2023-04-08T06:34:53;6.00;;;3.42;;
56413;SDS011;42318;48.452;19.526;2023-04-08T06:42:23;11.52;;;6.03;;
56413;SDS011;42318;48.452;19.526;2023-04-08T06:49:54;9.48;;;5.50;;
56413;SDS011;42318;48.452;19.526;2023-04-08T06:57:25;11.18;;;5.30;;
56413;SDS011;42318;48.452;19.526;2023-04-08T07:04:56;9.27;;;5.03;;
56413;SDS011;42318;48.452;19.526;2023-04-08T07:12:27;11.48;;;5.18;;
56413;SDS011;42318;48.452;19.526;2023-04-08T07:19:58;7.20;;;4.25;;
56413;SDS011;42318;48.452;19.526;2023-04-08T07:27:28;8.23;;;4.20;;
56413;SDS011;42318;48.452;19.526;2023-04-08T07:34:59;12.55;;;4.70;;
56413;SDS011;42318;48.452;19.526;2023-04-08T07:42:30;11.80;;;4.60;;
56413;SDS011;42318;48.452;19.526;2023-04-08T07:50:02;14.70;;;4.70;;
56413;SDS011;42318;48.452;19.526;2023-04-08T07:57:33;10.77;;;5.23;;
56413;SDS011;42318;48.452;19.526;2023-04-08T08:05:04;11.25;;;5.43;;
56413;SDS011;42318;48.452;19.526;2023-04-08T08:12:36;18.23;;;5.67;;
56413;SDS011;42318;48.452;19.526;2023-04-08T08:20:07;15.43;;;5.22;;
56413;SDS011;42318;48.452;19.526;2023-04-08T08:27:38;9.82;;;5.05;;
56413;SDS011;42318;48.452;19.526;2023-04-08T08:35:11;9.52;;;5.13;;
56413;SDS011;42318;48.452;19.526;2023-04-08T08:42:47;11.95;;;6.15;;
56413;SDS011;42318;48.452;19.526;2023-04-08T08:50:20;9.90;;;5.82;;
56413;SDS011;42318;48.452;19.526;2023-04-08T08:57:51;10.77;;;5.80;;
56413;SDS011;42318;48.452;19.526;2023-04-08T09:05:22;10.18;;;6.20;;
56413;SDS011;42318;48.452;19.526;2023-04-08T09:12:54;10.65;;;5.63;;
56413;SDS011;42318;48.452;19.526;2023-04-08T09:20:25;17.58;;;9.70;;
56413;SDS011;42318;48.452;19.526;2023-04-08T09:27:56;14.02;;;8.32;;
56413;SDS011;42318;48.452;19.526;2023-04-08T09:35:27;11.63;;;7.35;;
56413;SDS011;42318;48.452;19.526;2023-04-08T09:42:58;12.85;;;8.63;;
56413;SDS011;42318;48.452;19.526;2023-04-08T09:50:39;11.13;;;7.68;;
56413;SDS011;42318;48.452;19.526;2023-04-08T09:58:18;13.95;;;7.63;;
56413;SDS011;42318;48.452;19.526;2023-04-08T10:05:57;13.63;;;8.18;;
56413;SDS011;42318;48.452;19.526;2023-04-08T10:13:30;11.27;;;7.90;;
56413;SDS011;42318;48.452;19.526;2023-04-08T10:21:03;13.05;;;8.05;;
56413;SDS011;42318;48.452;19.526;2023-04-08T10:28:34;10.73;;;7.05;;
56413;SDS011;42318;48.452;19.526;2023-04-08T10:36:09;14.32;;;8.85;;
56413;SDS011;42318;48.452;19.526;2023-04-08T10:43:41;14.50;;;10.98;;
56413;SDS011;42318;48.452;19.526;2023-04-08T10:51:12;16.17;;;11.88;;
56413;SDS011;42318;48.452;19.526;2023-04-08T10:58:47;17.88;;;12.10;;
56413;SDS011;42318;48.452;19.526;2023-04-08T11:06:19;17.27;;;11.38;;
56413;SDS011;42318;48.452;19.526;2023-04-08T11:13:50;14.52;;;10.73;;
56413;SDS011;42318;48.452;19.526;2023-04-08T11:21:23;15.02;;;10.60;;
56413;SDS011;42318;48.452;19.526;2023-04-08T11:28:58;12.95;;;10.18;;
56413;SDS011;42318;48.452;19.526;2023-04-08T11:36:30;13.70;;;10.33;;
56413;SDS011;42318;48.452;19.526;2023-04-08T11:44:02;12.85;;;9.70;;
56413;SDS011;42318;48.452;19.526;2023-04-08T11:51:37;12.65;;;9.70;;
56413;SDS011;42318;48.452;19.526;2023-04-08T11:59:28;13.27;;;9.52;;
56413;SDS011;42318;48.452;19.526;2023-04-08T12:06:59;13.38;;;8.77;;
56413;SDS011;42318;48.452;19.526;2023-04-08T12:14:30;11.95;;;9.02;;
56413;SDS011;42318;48.452;19.526;2023-04-08T12:22:01;12.63;;;8.10;;
56413;SDS011;42318;48.452;19.526;2023-04-08T12:29:32;11.67;;;8.23;;
56413;SDS011;42318;48.452;19.526;2023-04-08T12:37:03;10.02;;;7.80;;
56413;SDS011;42318;48.452;19.526;2023-04-08T12:44:34;11.18;;;8.23;;
56413;SDS011;42318;48.452;19.526;2023-04-08T12:52:05;17.75;;;9.25;;
56413;SDS011;42318;48.452;19.526;2023-04-08T12:59:36;11.55;;;8.05;;
56413;SDS011;42318;48.452;19.526;2023-04-08T13:07:07;12.40;;;8.37;;
56413;SDS011;42318;48.452;19.526;2023-04-08T13:14:38;11.45;;;7.32;;
56413;SDS011;42318;48.452;19.526;2023-04-08T13:22:09;11.45;;;7.18;;
56413;SDS011;42318;48.452;19.526;2023-04-08T13:29:40;10.55;;;6.75;;
56413;SDS011;42318;48.452;19.526;2023-04-08T13:37:10;11.90;;;7.10;;
56413;SDS011;42318;48.452;19.526;2023-04-08T13:44:41;8.38;;;6.65;;
56413;SDS011;42318;48.452;19.526;2023-04-08T13:52:12;11.02;;;6.95;;
56413;SDS011;42318;48.452;19.526;2023-04-08T13:59:43;8.15;;;6.28;;
56413;SDS011;42318;48.452;19.526;2023-04-08T14:07:13;10.07;;;6.70;;
56413;SDS011;42318;48.452;19.526;2023-04-08T14:14:44;10.77;;;6.75;;
56413;SDS011;42318;48.452;19.526;2023-04-08T14:22:15;15.77;;;8.55;;
56413;SDS011;42318;48.452;19.526;2023-04-08T14:29:48;14.32;;;9.73;;
56413;SDS011;42318;48.452;19.526;2023-04-08T14:37:19;16.20;;;9.27;;
56413;SDS011;42318;48.452;19.526;2023-04-08T14:44:50;16.20;;;9.43;;
56413;SDS011;42318;48.452;19.526;2023-04-08T14:52:21;16.50;;;9.38;;
56413;SDS011;42318;48.452;19.526;2023-04-08T14:59:52;15.88;;;9.50;;
56413;SDS011;42318;48.452;19.526;2023-04-08T15:07:23;14.10;;;9.07;;
56413;SDS011;42318;48.452;19.526;2023-04-08T15:14:54;14.43;;;8.48;;
56413;SDS011;42318;48.452;19.526;2023-04-08T15:22:25;15.23;;;9.07;;
56413;SDS011;42318;48.452;19.526;2023-04-08T15:29:56;14.57;;;8.88;;
56413;SDS011;42318;48.452;19.526;2023-04-08T15:37:27;16.23;;;8.95;;
56413;SDS011;42318;48.452;19.526;2023-04-08T15:44:58;13.88;;;8.85;;
56413;SDS011;42318;48.452;19.526;2023-04-08T15:52:29;12.43;;;8.35;;
56413;SDS011;42318;48.452;19.526;2023-04-08T16:00:08;12.50;;;8.60;;
56413;SDS011;42318;48.452;19.526;2023-04-08T16:07:40;12.63;;;7.68;;
56413;SDS011;42318;48.452;19.526;2023-04-08T16:15:12;15.50;;;8.60;;
56413;SDS011;42318;48.452;19.526;2023-04-08T16:22:43;11.88;;;8.15;;
56413;SDS011;42318;48.452;19.526;2023-04-08T16:30:14;13.90;;;8.45;;
56413;SDS011;42318;48.452;19.526;2023-04-08T16:37:45;11.88;;;7.30;;
56413;SDS011;42318;48.452;19.526;2023-04-08T16:45:16;12.10;;;7.65;;
56413;SDS011;42318;48.452;19.526;2023-04-08T16:52:47;12.02;;;7.25;;
56413;SDS011;42318;48.452;19.526;2023-04-08T17:00:19;12.97;;;7.70;;
56413;SDS011;42318;48.452;19.526;2023-04-08T17:07:50;13.93;;;7.32;;
56413;SDS011;42318;48.452;19.526;2023-04-08T17:15:21;12.18;;;6.88;;
56413;SDS011;42318;48.452;19.526;2023-04-08T17:22:52;10.15;;;6.70;;
56413;SDS011;42318;48.452;19.526;2023-04-08T17:30:23;10.23;;;7.10;;
56413;SDS011;42318;48.452;19.526;2023-04-08T17:37:54;9.50;;;6.40;;
56413;SDS011;42318;48.452;19.526;2023-04-08T17:45:24;10.07;;;6.90;;
56413;SDS011;42318;48.452;19.526;2023-04-08T17:52:55;10.27;;;6.28;;
56413;SDS011;42318;48.452;19.526;2023-04-08T18:00:26;10.73;;;6.20;;
56413;SDS011;42318;48.452;19.526;2023-04-08T18:07:58;10.05;;;6.22;;
56413;SDS011;42318;48.452;19.526;2023-04-08T18:15:29;7.95;;;5.80;;
56413;SDS011;42318;48.452;19.526;2023-04-08T18:23:00;8.73;;;5.20;;
56413;SDS011;42318;48.452;19.526;2023-04-08T18:30:33;10.25;;;5.82;;
56413;SDS011;42318;48.452;19.526;2023-04-08T18:38:04;8.88;;;5.45;;
56413;SDS011;42318;48.452;19.526;2023-04-08T18:45:36;8.70;;;5.18;;
56413;SDS011;42318;48.452;19.526;2023-04-08T18:53:07;7.57;;;5.13;;
56413;SDS011;42318;48.452;19.526;2023-04-08T19:00:38;8.25;;;5.07;;
56413;SDS011;42318;48.452;19.526;2023-04-08T19:15:41;8.68;;;4.93;;
56413;SDS011;42318;48.452;19.526;2023-04-08T19:23:12;7.05;;;4.85;;
56413;SDS011;42318;48.452;19.526;2023-04-08T19:30:43;7.60;;;4.63;;
56413;SDS011;42318;48.452;19.526;2023-04-08T19:38:14;6.75;;;4.78;;
56413;SDS011;42318;48.452;19.526;2023-04-08T19:45:45;5.95;;;4.57;;
56413;SDS011;42318;48.452;19.526;2023-04-08T19:53:16;5.70;;;4.43;;
56413;SDS011;42318;48.452;19.526;2023-04-08T20:00:47;7.28;;;4.50;;
56413;SDS011;42318;48.452;19.526;2023-04-08T20:08:17;5.85;;;3.53;;
56413;SDS011;42318;48.452;19.526;2023-04-08T20:15:48;6.60;;;3.92;;
56413;SDS011;42318;48.452;19.526;2023-04-08T20:23:19;5.72;;;4.05;;
56413;SDS011;42318;48.452;19.526;2023-04-08T20:30:50;7.20;;;4.10;;
56413;SDS011;42318;48.452;19.526;2023-04-08T20:38:22;7.78;;;4.90;;
56413;SDS011;42318;48.452;19.526;2023-04-08T20:45:54;5.95;;;4.40;;
56413;SDS011;42318;48.452;19.526;2023-04-08T20:53:25;7.78;;;4.43;;
56413;SDS011;42318;48.452;19.526;2023-04-08T21:00:57;6.45;;;4.28;;
56413;SDS011;42318;48.452;19.526;2023-04-08T21:08:28;6.57;;;4.25;;
56413;SDS011;42318;48.452;19.526;2023-04-08T21:15:59;5.70;;;3.63;;
56413;SDS011;42318;48.452;19.526;2023-04-08T21:23:30;8.32;;;4.15;;
56413;SDS011;42318;48.452;19.526;2023-04-08T21:31:07;6.50;;;4.30;;
56413;SDS011;42318;48.452;19.526;2023-04-08T21:38:41;8.00;;;4.30;;
56413;SDS011;42318;48.452;19.526;2023-04-08T21:46:12;8.95;;;4.25;;
56413;SDS011;42318;48.452;19.526;2023-04-08T21:53:43;7.70;;;4.50;;
56413;SDS011;42318;48.452;19.526;2023-04-08T22:01:14;8.55;;;4.55;;
56413;SDS011;42318;48.452;19.526;2023-04-08T22:08:45;8.02;;;4.40;;
56413;SDS011;42318;48.452;19.526;2023-04-08T22:16:16;7.40;;;4.65;;
56413;SDS011;42318;48.452;19.526;2023-04-08T22:23:47;8.68;;;4.60;;
56413;SDS011;42318;48.452;19.526;2023-04-08T22:31:18;6.88;;;4.68;;
56413;SDS011;42318;48.452;19.526;2023-04-08T22:38:49;6.47;;;4.72;;
56413;SDS011;42318;48.452;19.526;2023-04-08T22:46:19;8.10;;;4.50;;
56413;SDS011;42318;48.452;19.526;2023-04-08T22:53:50;6.78;;;4.78;;
56413;SDS011;42318;48.452;19.526;2023-04-08T23:01:21;9.02;;;4.88;;
56413;SDS011;42318;48.452;19.526;2023-04-08T23:08:52;6.95;;;4.72;;
56413;SDS011;42318;48.452;19.526;2023-04-08T23:16:23;7.10;;;4.47;;
56413;SDS011;42318;48.452;19.526;2023-04-08T23:23:54;7.40;;;4.35;;
56413;SDS011;42318;48.452;19.526;2023-04-08T23:31:24;9.57;;;4.10;;
56413;SDS011;42318;48.452;19.526;2023-04-08T23:38:55;4.95;;;3.67;;
56413;SDS011;42318;48.452;19.526;2023-04-08T23:46:26;6.07;;;3.97;;
56413;SDS011;42318;48.452;19.526;2023-04-08T23:53:57;7.35;;;4.60;;
